createdAt,value
2022-09-04T00:00:19.436Z,90.20
2022-09-04T00:03:18.869Z,98.47
2022-09-04T00:05:53.426Z,85.85
2022-09-04T00:08:50.247Z,81.57
2022-09-04T00:11:38.266Z,96.93
2022-09-04T00:14:14.661Z,93.35
2022-09-04T00:16:51.363Z,91.97
2022-09-04T00:19:33.812Z,97.28
2022-09-04T00:22:11.226Z,98.78
2022-09-04T00:24:47.813Z,75.18
2022-09-04T00:27:24.810Z,88.43
2022-09-04T00:30:03.283Z,82.60
2022-09-04T00:32:41.541Z,89.20
2022-09-04T00:35:17.956Z,87.50
2022-09-04T00:37:56.915Z,77.90
2022-09-04T00:40:31.448Z,79.47
2022-09-04T00:43:42.588Z,84.07
2022-09-04T00:46:38.550Z,147.55
2022-09-04T00:49:34.062Z,80.05
2022-09-04T00:52:15.444Z,72.25
2022-09-04T00:55:08.656Z,74.57
2022-09-04T00:58:28.086Z,74.40
2022-09-04T01:01:00.533Z,72.47
2022-09-04T01:04:02.501Z,76.47
2022-09-04T01:06:43.724Z,63.92
2022-09-04T01:10:09.764Z,71.88
2022-09-04T01:12:46.798Z,76.28
2022-09-04T01:15:23.785Z,71.55
2022-09-04T01:18:04.361Z,69.63
2022-09-04T01:21:16.633Z,79.63
2022-09-04T01:24:19.814Z,73.03
2022-09-04T01:27:00.404Z,74.88
2022-09-04T01:29:45.259Z,80.82
2022-09-04T01:32:30.491Z,75.43
2022-09-04T01:35:10.344Z,61.63
2022-09-04T01:37:56.788Z,69.28
2022-09-04T01:40:37.067Z,66.63
2022-09-04T01:43:12.584Z,68.07
2022-09-04T01:46:38.853Z,66.78
2022-09-04T01:49:20.725Z,69.45
2022-09-04T01:52:04.394Z,62.30
2022-09-04T01:54:50.274Z,71.78
2022-09-04T01:57:38.565Z,63.83
2022-09-04T02:00:13.103Z,62.83
2022-09-04T02:03:02.400Z,64.32
2022-09-04T02:05:48.425Z,61.75
2022-09-04T02:08:36.896Z,106.28
2022-09-04T02:11:12.396Z,91.05
2022-09-04T02:14:02.342Z,208.60
2022-09-04T02:16:47.113Z,244.68
2022-09-04T02:19:32.921Z,110.10
2022-09-04T02:22:17.459Z,124.88
2022-09-04T02:25:04.698Z,126.63
2022-09-04T02:27:43.048Z,111.68
2022-09-04T02:30:15.254Z,189.98
2022-09-04T02:32:57.613Z,173.73
2022-09-04T02:35:38.143Z,190.68
2022-09-04T02:38:19.761Z,103.90
2022-09-04T02:40:56.470Z,124.75
2022-09-04T02:43:47.997Z,112.70
2022-09-04T02:46:25.780Z,122.22
2022-09-04T02:49:13.367Z,128.75
2022-09-04T02:52:01.980Z,146.63
2022-09-04T02:54:48.659Z,278.38
2022-09-04T02:57:29.982Z,155.20
2022-09-04T03:00:09.298Z,262.27
2022-09-04T03:02:46.525Z,225.38
2022-09-04T03:05:24.657Z,440.45
2022-09-04T03:08:04.336Z,131.68
2022-09-04T03:10:40.605Z,151.82
2022-09-04T03:13:21.113Z,150.60
2022-09-04T03:15:56.994Z,661.35
2022-09-04T03:18:34.565Z,207.15
2022-09-04T03:21:12.300Z,174.15
2022-09-04T03:23:51.895Z,159.27
2022-09-04T03:26:26.367Z,189.55
2022-09-04T03:29:15.120Z,236.50
2022-09-04T03:31:58.664Z,150.63
2022-09-04T03:34:39.791Z,159.52
2022-09-04T03:37:44.418Z,194.27
2022-09-04T03:40:34.403Z,179.35
2022-09-04T03:43:36.797Z,123.57
2022-09-04T03:46:24.870Z,114.90
2022-09-04T03:49:17.427Z,149.57
2022-09-04T03:52:00.717Z,100.10
2022-09-04T03:54:50.243Z,102.70
2022-09-04T03:57:44.020Z,76.50
2022-09-04T04:00:18.418Z,104.78
2022-09-04T04:03:11.090Z,100.88
2022-09-04T04:05:50.195Z,87.80
2022-09-04T04:08:56.799Z,98.43
2022-09-04T04:11:47.274Z,85.70
2022-09-04T04:14:38.502Z,89.97
2022-09-04T04:18:00.230Z,187.43
2022-09-04T04:20:42.471Z,159.35
2022-09-04T04:23:58.140Z,100.82
2022-09-04T04:26:54.046Z,88.93
2022-09-04T04:30:03.207Z,105.85
2022-09-04T04:33:12.081Z,244.48
2022-09-04T04:35:54.917Z,99.85
2022-09-04T04:41:31.833Z,124.78
2022-09-04T04:44:12.954Z,126.28
2022-09-04T04:47:01.326Z,111.40
2022-09-04T04:49:51.121Z,152.32
2022-09-04T04:52:37.092Z,116.88
2022-09-04T04:55:17.257Z,127.97
2022-09-04T04:58:05.538Z,95.03
2022-09-04T05:00:44.779Z,113.88
2022-09-04T05:03:24.951Z,85.55
2022-09-04T05:06:02.631Z,89.57
2022-09-04T05:08:43.855Z,105.80
2022-09-04T05:11:25.992Z,96.60
2022-09-04T05:14:10.110Z,103.05
2022-09-04T05:16:55.972Z,79.40
2022-09-04T05:19:33.892Z,99.93
2022-09-04T05:22:15.308Z,108.70
2022-09-04T05:25:01.195Z,87.32
2022-09-04T05:27:49.818Z,89.57
2022-09-04T05:30:29.578Z,100.28
2022-09-04T05:33:09.742Z,82.95
2022-09-04T05:35:51.330Z,91.43
2022-09-04T05:38:31.161Z,89.68
2022-09-04T05:41:08.256Z,68.63
2022-09-04T05:44:01.676Z,89.10
2022-09-04T05:46:52.028Z,74.95
2022-09-04T05:49:44.884Z,72.82
2022-09-04T05:52:51.826Z,78.05
2022-09-04T05:55:36.449Z,61.67
2022-09-04T05:58:39.223Z,52.30
2022-09-04T06:01:26.012Z,61.55
2022-09-04T06:04:31.636Z,69.65
2022-09-04T06:07:11.836Z,49.03
2022-09-04T06:10:00.266Z,73.20
2022-09-04T06:13:15.508Z,75.45
2022-09-04T06:16:03.796Z,63.75
2022-09-04T06:18:58.802Z,60.72
2022-09-04T06:22:02.716Z,53.58
2022-09-04T06:24:53.880Z,54.53
2022-09-04T06:27:51.560Z,68.68
2022-09-04T06:30:21.105Z,45.42
2022-09-04T06:33:37.771Z,73.97
2022-09-04T06:36:27.813Z,59.83
2022-09-04T06:39:30.601Z,93.40
2022-09-04T06:42:24.204Z,95.15
2022-09-04T06:45:11.243Z,71.78
2022-09-04T06:47:58.307Z,88.60
2022-09-04T06:50:39.079Z,91.43
2022-09-04T06:53:27.094Z,109.22
2022-09-04T06:56:22.833Z,106.40
2022-09-04T06:59:38.345Z,117.40
2022-09-04T07:02:27.328Z,114.47
2022-09-04T07:05:15.683Z,110.22
2022-09-04T07:07:56.477Z,99.97
2022-09-04T07:10:31.924Z,103.15
2022-09-04T07:13:40.523Z,81.97
2022-09-04T07:16:32.091Z,84.90
2022-09-04T07:19:48.850Z,83.97
2022-09-04T07:22:45.623Z,94.78
2022-09-04T07:25:24.295Z,99.18
2022-09-04T07:28:14.287Z,118.95
2022-09-04T07:30:53.717Z,111.82
2022-09-04T07:33:33.394Z,106.22
2022-09-04T07:36:11.601Z,100.25
2022-09-04T07:38:53.928Z,127.32
2022-09-04T07:41:33.489Z,229.63
2022-09-04T07:44:15.217Z,99.95
2022-09-04T07:47:00.450Z,110.20
2022-09-04T07:49:37.415Z,131.55
2022-09-04T07:52:21.524Z,90.65
2022-09-04T07:55:19.093Z,115.35
2022-09-04T07:58:20.412Z,124.28
2022-09-04T08:01:58.615Z,154.73
2022-09-04T08:05:11.359Z,153.52
2022-09-04T08:08:26.695Z,170.98
2022-09-04T08:11:17.538Z,183.90
2022-09-04T08:14:17.278Z,133.43
2022-09-04T08:17:02.056Z,168.98
2022-09-04T08:19:48.994Z,208.30
2022-09-04T08:22:31.529Z,253.10
2022-09-04T08:25:17.076Z,263.48
2022-09-04T08:28:02.980Z,252.75
2022-09-04T08:30:42.048Z,245.32
2022-09-04T08:33:34.341Z,246.10
2022-09-04T08:36:16.313Z,245.63
2022-09-04T08:39:07.400Z,261.20
2022-09-04T08:42:07.009Z,286.55
2022-09-04T08:45:23.262Z,286.75
2022-09-04T08:48:54.777Z,293.67
2022-09-04T08:52:03.529Z,293.75
2022-09-04T08:55:24.202Z,294.83
2022-09-04T08:58:48.263Z,313.00
2022-09-04T09:02:04.207Z,288.15
2022-09-04T09:05:11.211Z,315.15
2022-09-04T09:08:41.570Z,349.90
2022-09-04T09:11:57.746Z,348.73
2022-09-04T09:15:31.200Z,366.55
2022-09-04T09:18:18.221Z,433.23
2022-09-04T09:20:55.066Z,383.95
2022-09-04T09:23:41.708Z,393.70
2022-09-04T09:26:26.671Z,396.23
2022-09-04T09:29:31.161Z,389.20
2022-09-04T09:32:49.587Z,400.30
2022-09-04T09:36:07.756Z,386.67
2022-09-04T09:39:09.801Z,365.15
2022-09-04T09:42:32.510Z,378.67
2022-09-04T09:45:36.789Z,371.93
2022-09-04T09:49:04.220Z,372.25
2022-09-04T09:52:19.366Z,374.83
2022-09-04T09:55:32.751Z,393.75
2022-09-04T09:58:47.957Z,393.52
2022-09-04T10:01:43.786Z,384.13
2022-09-04T10:05:03.614Z,396.33
2022-09-04T10:08:33.825Z,393.75
2022-09-04T10:11:57.365Z,402.70
2022-09-04T10:15:37.687Z,393.90
2022-09-04T10:19:06.442Z,388.50
2022-09-04T10:22:36.558Z,388.77
2022-09-04T10:25:49.494Z,396.10
2022-09-04T10:28:55.838Z,401.65
2022-09-04T10:32:18.013Z,416.38
2022-09-04T10:35:18.947Z,401.00
2022-09-04T10:38:17.708Z,409.15
2022-09-04T10:41:15.692Z,427.00
2022-09-04T10:44:15.275Z,418.23
2022-09-04T10:46:57.649Z,377.73
2022-09-04T10:50:04.872Z,410.70
2022-09-04T10:53:10.644Z,395.65
2022-09-04T10:56:12.802Z,370.85
2022-09-04T10:59:25.868Z,425.42
2022-09-04T11:02:22.684Z,439.05
2022-09-04T11:05:27.824Z,420.83
2022-09-04T11:08:27.709Z,412.58
2022-09-04T11:11:18.260Z,419.30
2022-09-04T11:14:57.466Z,415.70
2022-09-04T11:18:20.578Z,449.50
2022-09-04T11:21:49.519Z,398.52
2022-09-04T11:25:19.404Z,405.92
2022-09-04T11:28:16.837Z,423.38
2022-09-04T11:31:09.081Z,385.75
2022-09-04T11:34:33.755Z,414.27
2022-09-04T11:38:00.071Z,435.08
2022-09-04T11:41:58.452Z,396.77
2022-09-04T11:45:09.801Z,430.65
2022-09-04T11:48:12.105Z,404.75
2022-09-04T11:51:03.404Z,422.02
2022-09-04T11:54:26.495Z,445.67
2022-09-04T11:57:13.557Z,429.70
2022-09-04T12:00:09.514Z,384.40
2022-09-04T12:03:07.941Z,352.40
2022-09-04T12:06:13.639Z,358.55
2022-09-04T12:09:37.337Z,324.25
2022-09-04T12:12:39.482Z,321.17
2022-09-04T12:15:29.003Z,379.83
2022-09-04T12:18:41.916Z,338.52
2022-09-04T12:21:53.947Z,300.20
2022-09-04T12:25:06.914Z,314.88
2022-09-04T12:28:26.915Z,252.82
2022-09-04T12:31:24.460Z,263.52
2022-09-04T12:34:39.654Z,248.70
2022-09-04T12:38:01.970Z,275.88
2022-09-04T12:40:41.297Z,278.52
2022-09-04T12:43:31.643Z,265.13
2022-09-04T12:46:33.381Z,343.33
2022-09-04T12:49:29.140Z,289.67
2022-09-04T12:52:19.260Z,295.75
2022-09-04T12:55:03.337Z,294.00
2022-09-04T12:57:46.741Z,329.75
2022-09-04T13:00:18.618Z,344.83
2022-09-04T13:03:12.194Z,284.75
2022-09-04T13:06:04.426Z,303.65
2022-09-04T13:08:53.668Z,330.13
2022-09-04T13:11:41.515Z,332.05
2022-09-04T13:14:58.744Z,281.17
2022-09-04T13:17:37.293Z,258.98
2022-09-04T13:20:21.040Z,237.77
2022-09-04T13:23:12.731Z,272.60
2022-09-04T13:25:59.685Z,311.92
2022-09-04T13:28:45.381Z,296.25
2022-09-04T13:31:48.213Z,330.48
2022-09-04T13:37:07.105Z,276.73
2022-09-04T13:40:12.539Z,310.25
2022-09-04T13:43:32.805Z,270.75
2022-09-04T13:46:09.067Z,283.67
2022-09-04T13:48:44.240Z,289.15
2022-09-04T13:51:19.053Z,316.30
2022-09-04T13:54:05.255Z,302.80
2022-09-04T13:56:41.254Z,289.65
2022-09-04T13:59:18.499Z,296.88
2022-09-04T14:01:52.582Z,301.10
2022-09-04T14:04:26.765Z,297.85
2022-09-04T14:07:07.353Z,239.95
2022-09-04T14:09:45.123Z,300.85
2022-09-04T14:12:32.969Z,363.42
2022-09-04T14:15:38.234Z,314.35
2022-09-04T14:18:24.779Z,327.88
2022-09-04T14:21:01.226Z,345.67
2022-09-04T14:23:45.976Z,386.15
2022-09-04T14:26:29.894Z,379.42
2022-09-04T14:29:08.013Z,346.40
2022-09-04T14:31:52.621Z,345.95
2022-09-04T14:34:37.641Z,369.45
2022-09-04T14:37:20.340Z,342.85
2022-09-04T14:39:55.317Z,328.42
2022-09-04T14:42:42.812Z,358.40
2022-09-04T14:45:50.379Z,368.60
2022-09-04T14:48:24.510Z,305.17
2022-09-04T14:50:57.854Z,303.05
2022-09-04T14:53:31.963Z,267.17
2022-09-04T14:56:34.753Z,309.42
2022-09-04T14:59:21.601Z,317.42
2022-09-04T15:02:12.884Z,307.65
2022-09-04T15:04:50.344Z,333.33
2022-09-04T15:07:34.468Z,300.52
2022-09-04T15:10:17.598Z,284.90
2022-09-04T15:12:55.898Z,309.92
2022-09-04T15:15:32.988Z,285.42
2022-09-04T15:18:12.413Z,322.60
2022-09-04T15:20:53.819Z,297.75
2022-09-04T15:23:33.361Z,353.70
2022-09-04T15:26:08.994Z,297.40
2022-09-04T15:28:47.001Z,300.75
2022-09-04T15:31:21.039Z,286.92
2022-09-04T15:33:50.610Z,271.70
2022-09-04T15:36:25.844Z,287.77
2022-09-04T15:38:59.221Z,277.83
2022-09-04T15:41:41.025Z,352.98
2022-09-04T15:44:23.238Z,322.77
2022-09-04T15:47:07.579Z,328.67
2022-09-04T15:49:48.119Z,326.10
2022-09-04T15:52:39.424Z,280.55
2022-09-04T15:55:22.255Z,268.70
2022-09-04T15:58:01.508Z,316.65
2022-09-04T16:00:32.986Z,321.27
2022-09-04T16:03:15.280Z,328.70
2022-09-04T16:05:51.479Z,319.83
2022-09-04T16:08:31.887Z,307.45
2022-09-04T16:11:04.590Z,300.10
2022-09-04T16:13:44.428Z,342.00
2022-09-04T16:16:22.987Z,312.23
2022-09-04T16:19:24.032Z,358.30
2022-09-04T16:22:09.345Z,324.77
2022-09-04T16:24:47.340Z,390.65
2022-09-04T16:27:22.082Z,433.50
2022-09-04T16:29:57.390Z,308.40
2022-09-04T16:32:30.059Z,267.05
2022-09-04T16:35:04.949Z,357.05
2022-09-04T16:37:43.480Z,295.73
2022-09-04T16:40:31.081Z,330.40
2022-09-04T16:43:12.205Z,329.00
2022-09-04T16:45:49.925Z,434.40
2022-09-04T16:48:34.149Z,421.73
2022-09-04T16:51:39.238Z,320.42
2022-09-04T16:54:08.147Z,285.70
2022-09-04T16:56:43.622Z,313.80
2022-09-04T16:59:26.424Z,298.88
2022-09-04T17:04:42.670Z,230.25
2022-09-04T17:07:20.443Z,285.45
2022-09-04T17:10:01.905Z,325.08
2022-09-04T17:12:48.468Z,280.40
2022-09-04T17:15:28.834Z,258.52
2022-09-04T17:17:59.481Z,257.13
2022-09-04T17:22:12.960Z,295.50
2022-09-04T17:28:55.573Z,248.18
2022-09-04T17:29:18.803Z,256.52
2022-09-04T17:29:38.318Z,237.15
2022-09-04T17:33:30.598Z,235.10
2022-09-04T17:40:35.593Z,221.10
2022-09-04T17:41:34.629Z,254.68
2022-09-04T17:41:36.712Z,256.00
2022-09-04T17:44:39.072Z,238.77
2022-09-04T17:47:24.829Z,252.75
2022-09-04T17:49:56.592Z,257.83
2022-09-04T17:52:29.106Z,287.33
2022-09-04T17:55:06.776Z,312.73
2022-09-04T17:57:57.429Z,284.27
2022-09-04T18:00:36.150Z,287.70
2022-09-04T18:03:17.539Z,272.80
2022-09-04T18:05:53.655Z,235.65
2022-09-04T18:08:32.617Z,295.25
2022-09-04T18:11:13.346Z,284.50
2022-09-04T18:13:52.200Z,264.10
2022-09-04T18:17:11.228Z,282.35
2022-09-04T18:19:46.556Z,229.65
2022-09-04T18:22:31.917Z,259.13
2022-09-04T18:25:16.760Z,222.20
2022-09-04T18:28:06.174Z,263.15
2022-09-04T18:37:06.096Z,232.77
2022-09-04T18:37:24.172Z,213.93
2022-09-04T18:37:44.245Z,212.00
2022-09-04T18:40:12.787Z,229.55
2022-09-04T18:50:22.333Z,230.93
2022-09-04T18:50:33.449Z,158.65
2022-09-04T18:51:36.756Z,224.80
2022-09-04T18:54:13.300Z,240.68
2022-09-04T18:56:47.990Z,246.38
2022-09-04T18:59:25.003Z,276.73
2022-09-04T19:02:04.512Z,213.32
2022-09-04T19:04:49.479Z,258.95
2022-09-04T19:07:32.005Z,251.82
2022-09-04T19:10:25.781Z,241.60
2022-09-04T19:13:05.362Z,243.05
2022-09-04T19:16:03.025Z,208.07
2022-09-04T19:18:48.322Z,241.57
2022-09-04T19:21:37.473Z,233.93
2022-09-04T19:24:34.588Z,204.05
2022-09-04T19:27:26.853Z,219.43
2022-09-04T19:30:18.160Z,225.20
2022-09-04T19:33:09.739Z,207.90
2022-09-04T19:35:48.738Z,213.77
2022-09-04T19:45:36.196Z,201.35
2022-09-04T19:46:00.787Z,200.50
2022-09-04T19:46:09.185Z,203.02
2022-09-04T19:47:37.336Z,201.02
2022-09-04T19:53:19.048Z,177.38
2022-09-04T19:56:25.099Z,142.65
2022-09-04T19:59:04.975Z,194.85
2022-09-04T20:01:46.622Z,210.48
2022-09-04T20:04:27.817Z,182.07
2022-09-04T20:07:02.843Z,299.30
2022-09-04T20:09:40.014Z,295.77
2022-09-04T20:12:21.926Z,259.05
2022-09-04T20:14:57.208Z,216.48
2022-09-04T20:17:59.896Z,317.30
2022-09-04T20:20:46.635Z,201.38
2022-09-04T20:23:34.078Z,220.82
2022-09-04T20:26:21.611Z,284.27
2022-09-04T20:29:18.269Z,251.25
2022-09-04T20:31:53.872Z,208.55
2022-09-04T20:34:39.071Z,239.57
2022-09-04T20:37:33.198Z,245.07
2022-09-04T20:40:15.833Z,208.75
2022-09-04T20:42:56.357Z,248.15
2022-09-04T20:48:12.624Z,240.75
2022-09-04T20:52:52.408Z,308.02
2022-09-04T20:52:52.614Z,205.50
2022-09-04T20:55:00.311Z,212.90
2022-09-04T21:03:05.155Z,178.82
2022-09-04T21:03:19.031Z,190.68
2022-09-04T21:03:57.001Z,249.85
2022-09-04T21:06:34.892Z,214.18
2022-09-04T21:09:54.859Z,234.82
2022-09-04T21:12:35.371Z,182.82
2022-09-04T21:15:17.680Z,212.52
2022-09-04T21:18:14.378Z,235.38
2022-09-04T21:21:27.385Z,184.18
2022-09-04T21:24:50.385Z,232.45
2022-09-04T21:27:56.364Z,171.00
2022-09-04T21:30:58.316Z,170.00
2022-09-04T21:33:39.582Z,199.00
2022-09-04T21:36:25.687Z,159.02
2022-09-04T21:39:30.309Z,192.13
2022-09-04T21:42:34.856Z,221.23
2022-09-04T21:45:38.658Z,223.82
2022-09-04T21:48:42.215Z,278.52
2022-09-04T21:51:48.278Z,185.82
2022-09-04T21:57:06.854Z,358.52
2022-09-04T22:02:41.530Z,174.27
2022-09-04T22:02:41.704Z,207.68
2022-09-04T22:04:48.682Z,147.10
2022-09-04T22:08:58.732Z,215.57
2022-09-04T22:13:38.176Z,263.98
2022-09-04T22:13:49.907Z,198.55
2022-09-04T22:17:04.775Z,196.60
2022-09-04T22:20:19.871Z,370.30
2022-09-04T22:23:35.518Z,197.05
2022-09-04T22:27:13.297Z,328.98
2022-09-04T22:29:58.396Z,178.10
2022-09-04T22:33:19.680Z,171.93
2022-09-04T22:36:29.337Z,179.75
2022-09-04T22:39:37.902Z,332.80
2022-09-04T22:42:45.576Z,197.27
2022-09-04T22:45:46.195Z,240.63
2022-09-04T22:49:12.648Z,234.95
2022-09-04T22:52:25.785Z,188.10
2022-09-04T22:55:39.582Z,179.23
2022-09-04T22:58:42.418Z,308.52
2022-09-04T23:01:37.030Z,399.45
2022-09-04T23:04:26.547Z,240.02
2022-09-04T23:13:47.800Z,304.58
2022-09-04T23:13:52.839Z,228.70
2022-09-04T23:14:07.708Z,245.50
2022-09-04T23:17:34.482Z,383.83
2022-09-04T23:26:32.532Z,196.57
2022-09-04T23:26:41.675Z,374.27
2022-09-04T23:27:41.050Z,166.63
2022-09-04T23:30:25.215Z,562.83
2022-09-04T23:33:54.347Z,359.92
2022-09-04T23:37:01.480Z,215.15
2022-09-04T23:40:10.371Z,209.00
2022-09-04T23:43:28.384Z,317.38
2022-09-04T23:46:50.325Z,185.98
2022-09-04T23:49:53.092Z,264.70
2022-09-04T23:52:48.799Z,182.23
2022-09-04T23:55:37.296Z,201.82
2022-09-04T23:58:53.952Z,190.80
